首页
METAR-TAF:

METAR-TAF

机场 :

弗洛里亚诺波利斯, 圣卡塔琳娜州, 巴西

纬度: 27-40S, 经度: 048-33W, 海拔: 5米

当前天气观测

该预报发布于36分钟前的18:00 UTC
风速9节,风向北转西北,在西之间变化
温度 22°C
湿度 69%
气压 1021 hPa
能見度: 9000
附近有雾,

METAR: SBFL 241800Z 34009KT 260V010 9000 VCFG NSC 22/16 Q1021

时间: 15:36 (18:36 UTC)

预报

该预报发布于3小时和36分钟前的15:00 UTC
预报有效从24日的 18点(UTC)到 25日的 18点(UTC)
风速5节,风向北转西北
能见度10公里或以上
1500米以下无云,无积雨云
成为
从 25日的 03点(UTC)到 25日的 05点(UTC)
能見度: 1200
轻雾
成为
从 25日的 11点(UTC)到 25日的 13点(UTC)
能见度10公里或以上
1500米以下无云,无积雨云

TAF: SBFL 241500Z 2418/2518 33005KT CAVOK TX24/2418Z TN13/2508Z BECMG 2503/2505 1200 BR NSC BECMG 2511/2513 CAVOK RMK PDY

超过4000个机场的气象观测和天气预报(METAR&TAF报告)。

可查询的气象台以黄色和红色小点在地图上表示。

将鼠标移到小点上方,可查看气象台名称。

然后点击查看天气观测和预报。

如需切换地图:点击带黑十字的绿色按钮放大地图;点击带横线的绿色按钮缩小地图;或者点击绿色箭头查看邻近地区的地图。


METAR-TAF: